createdAt,value
2023-01-20T00:01:25.862Z,99973.84
2023-01-20T00:03:53.601Z,99963.25
2023-01-20T00:06:22.058Z,99977.31
2023-01-20T00:08:51.939Z,99959.25
2023-01-20T00:11:18.615Z,99965.81
2023-01-20T00:13:45.265Z,99995.84
2023-01-20T00:16:12.039Z,99975.19
2023-01-20T00:18:39.422Z,99986.41
2023-01-20T00:21:07.571Z,99992.38
2023-01-20T00:23:34.441Z,99987.19
2023-01-20T00:26:09.400Z,100009.34
2023-01-20T00:28:36.779Z,99999.13
2023-01-20T00:31:19.272Z,100006.81
2023-01-20T00:33:46.970Z,100014.09
2023-01-20T00:36:14.296Z,100022.50
2023-01-20T00:38:41.040Z,100049.91
2023-01-20T00:41:08.156Z,100089.34
2023-01-20T00:43:35.322Z,100087.63
2023-01-20T00:46:02.043Z,100098.97
2023-01-20T00:48:28.720Z,100113.59
2023-01-20T00:50:55.363Z,100121.91
2023-01-20T00:53:22.050Z,100125.66
2023-01-20T00:55:48.788Z,100155.03
2023-01-20T00:58:15.832Z,100162.72
2023-01-20T01:00:42.870Z,100163.75
2023-01-20T01:03:10.641Z,100164.75
2023-01-20T01:05:37.746Z,100166.38
2023-01-20T01:08:04.787Z,100164.28
2023-01-20T01:10:31.906Z,100170.41
2023-01-20T01:13:01.783Z,100168.22
2023-01-20T01:15:28.835Z,100161.28
2023-01-20T01:17:56.439Z,100164.34
2023-01-20T01:20:23.100Z,100171.78
2023-01-20T01:22:49.830Z,100178.19
2023-01-20T01:25:16.603Z,100195.69
2023-01-20T01:27:43.254Z,100195.78
2023-01-20T01:30:10.319Z,100208.22
2023-01-20T01:32:37.048Z,100213.97
2023-01-20T01:35:03.767Z,100225.59
2023-01-20T01:37:30.402Z,100234.00
2023-01-20T01:39:57.056Z,100237.59
2023-01-20T01:42:25.156Z,100244.34
2023-01-20T01:45:03.985Z,100253.41
2023-01-20T01:47:30.661Z,100266.41
2023-01-20T01:49:57.433Z,100273.00
2023-01-20T01:52:25.135Z,100275.00
2023-01-20T01:54:53.097Z,100278.81
2023-01-20T01:57:19.811Z,100297.66
2023-01-20T01:59:46.472Z,100300.38
2023-01-20T02:02:13.280Z,100295.84
2023-01-20T02:04:42.831Z,100302.88
2023-01-20T02:07:12.034Z,100307.47
2023-01-20T02:09:38.819Z,100315.06
2023-01-20T02:12:08.757Z,100312.41
2023-01-20T02:14:37.102Z,100323.84
2023-01-20T02:17:06.572Z,100332.28
2023-01-20T02:19:43.909Z,100340.22
2023-01-20T02:22:23.142Z,100348.03
2023-01-20T02:24:58.778Z,100358.09
2023-01-20T02:27:40.386Z,100365.75
2023-01-20T02:30:13.345Z,100379.63
2023-01-20T02:32:57.929Z,100397.19
2023-01-20T02:35:29.441Z,100416.91
2023-01-20T02:38:03.168Z,100421.00
2023-01-20T02:40:39.047Z,100424.78
2023-01-20T02:43:11.659Z,100424.97
2023-01-20T02:46:03.018Z,100415.69
2023-01-20T02:48:37.057Z,100414.78
2023-01-20T02:51:03.710Z,100423.19
2023-01-20T02:53:37.924Z,100426.59
2023-01-20T02:56:04.848Z,100433.88
2023-01-20T02:58:48.570Z,100435.00
2023-01-20T03:01:26.415Z,100445.25
2023-01-20T03:03:54.251Z,100459.97
2023-01-20T03:06:23.129Z,100465.91
2023-01-20T03:08:52.557Z,100460.06
2023-01-20T03:11:19.294Z,100465.19
2023-01-20T03:13:45.945Z,100465.97
2023-01-20T03:16:15.731Z,100465.44
2023-01-20T03:18:42.342Z,100468.59
2023-01-20T03:21:10.176Z,100469.72
2023-01-20T03:23:40.320Z,100471.22
2023-01-20T03:26:11.261Z,100473.34
2023-01-20T03:28:38.133Z,100482.59
2023-01-20T03:31:11.644Z,100485.44
2023-01-20T03:33:38.831Z,100490.91
2023-01-20T03:36:05.911Z,100491.28
2023-01-20T03:38:32.681Z,100510.31
2023-01-20T03:41:02.464Z,100516.50
2023-01-20T03:43:31.875Z,100524.09
2023-01-20T03:46:05.247Z,100525.09
2023-01-20T03:48:38.671Z,100525.09
2023-01-20T03:51:08.340Z,100530.88
2023-01-20T03:54:01.002Z,100538.50
2023-01-20T03:56:41.732Z,100546.81
2023-01-20T03:59:10.602Z,100545.97
2023-01-20T04:01:39.475Z,100548.59
2023-01-20T04:04:08.781Z,100550.63
2023-01-20T04:06:37.191Z,100559.38
2023-01-20T04:09:13.697Z,100567.34
2023-01-20T04:11:40.422Z,100560.38
2023-01-20T04:14:08.826Z,100573.66
2023-01-20T04:16:36.230Z,100579.97
2023-01-20T04:19:03.231Z,100581.75
2023-01-20T04:21:39.359Z,100575.28
2023-01-20T04:24:14.900Z,100576.28
2023-01-20T04:26:41.732Z,100580.59
2023-01-20T04:29:11.140Z,100582.44
2023-01-20T04:31:39.717Z,100589.41
2023-01-20T04:34:06.702Z,100593.56
2023-01-20T04:36:33.407Z,100609.78
2023-01-20T04:39:00.036Z,100601.66
2023-01-20T04:41:26.656Z,100607.63
2023-01-20T04:43:53.275Z,100603.13
2023-01-20T04:46:19.963Z,100613.75
2023-01-20T04:48:46.563Z,100619.06
2023-01-20T04:51:13.241Z,100622.41
2023-01-20T04:53:39.901Z,100638.50
2023-01-20T04:56:13.030Z,100646.28
2023-01-20T04:58:40.242Z,100647.41
2023-01-20T05:01:07.232Z,100649.94
2023-01-20T05:03:34.161Z,100661.19
2023-01-20T05:06:00.991Z,100664.16
2023-01-20T05:08:27.680Z,100667.31
2023-01-20T05:10:54.318Z,100679.94
2023-01-20T05:13:21.023Z,100679.09
2023-01-20T05:15:47.817Z,100691.69
2023-01-20T05:18:14.769Z,100699.63
2023-01-20T05:20:41.408Z,100701.44
2023-01-20T05:23:08.165Z,100712.50
2023-01-20T05:25:34.778Z,100716.50
2023-01-20T05:28:01.420Z,100725.94
2023-01-20T05:30:28.083Z,100726.59
2023-01-20T05:32:54.850Z,100729.41
2023-01-20T05:35:21.557Z,100736.31
2023-01-20T05:37:48.285Z,100745.94
2023-01-20T05:40:14.992Z,100744.75
2023-01-20T05:42:41.601Z,100746.63
2023-01-20T05:45:09.391Z,100758.81
2023-01-20T05:47:36.204Z,100766.44
2023-01-20T05:50:03.802Z,100775.69
2023-01-20T05:52:30.406Z,100773.41
2023-01-20T05:54:57.061Z,100781.25
2023-01-20T05:57:24.671Z,100782.75
2023-01-20T05:59:52.194Z,100794.84
2023-01-20T06:02:19.634Z,100800.66
2023-01-20T06:04:46.884Z,100806.47
2023-01-20T06:07:13.852Z,100810.31
2023-01-20T06:09:40.524Z,100821.91
2023-01-20T06:12:07.348Z,100834.13
2023-01-20T06:14:33.973Z,100845.53
2023-01-20T06:17:00.577Z,100848.94
2023-01-20T06:19:27.243Z,100868.56
2023-01-20T06:21:53.911Z,100874.00
2023-01-20T06:24:20.571Z,100869.81
2023-01-20T06:26:49.817Z,100879.44
2023-01-20T06:29:16.449Z,100887.75
2023-01-20T06:31:44.475Z,100891.97
2023-01-20T06:34:11.871Z,100912.00
2023-01-20T06:36:38.741Z,100918.06
2023-01-20T06:39:05.452Z,100927.22
2023-01-20T06:41:32.137Z,100930.34
2023-01-20T06:43:58.946Z,100938.75
2023-01-20T06:46:26.065Z,100937.19
2023-01-20T06:48:54.884Z,100948.31
2023-01-20T06:51:21.563Z,100944.13
2023-01-20T06:53:48.235Z,100954.16
2023-01-20T06:56:15.869Z,100969.38
2023-01-20T06:58:44.013Z,100972.03
2023-01-20T07:01:12.548Z,100978.03
2023-01-20T07:03:39.401Z,100986.78
2023-01-20T07:06:14.032Z,100985.94
2023-01-20T07:08:40.788Z,101005.31
2023-01-20T07:11:07.416Z,101015.06
2023-01-20T07:13:34.062Z,101028.09
2023-01-20T07:16:00.760Z,101029.34
2023-01-20T07:18:27.497Z,101029.19
2023-01-20T07:20:54.854Z,101037.06
2023-01-20T07:23:22.122Z,101048.59
2023-01-20T07:25:56.644Z,101050.69
2023-01-20T07:28:23.316Z,101056.34
2023-01-20T07:30:49.997Z,101069.75
2023-01-20T07:33:16.728Z,101075.16
2023-01-20T07:35:43.329Z,101073.94
2023-01-20T07:38:09.978Z,101086.41
2023-01-20T07:40:36.635Z,101095.16
2023-01-20T07:43:03.945Z,101105.44
2023-01-20T07:45:39.923Z,101111.56
2023-01-20T07:48:15.604Z,101116.72
2023-01-20T07:50:42.285Z,101121.88
2023-01-20T07:53:08.865Z,101120.50
2023-01-20T07:55:35.535Z,101116.75
2023-01-20T07:58:02.384Z,101126.75
2023-01-20T08:00:29.002Z,101133.25
2023-01-20T08:02:55.635Z,101142.75
2023-01-20T08:05:22.496Z,101151.09
2023-01-20T08:07:52.460Z,101159.22
2023-01-20T08:10:21.294Z,101160.88
2023-01-20T08:12:47.942Z,101166.84
2023-01-20T08:15:14.811Z,101177.31
2023-01-20T08:17:41.613Z,101176.44
2023-01-20T08:20:09.884Z,101182.94
2023-01-20T08:22:36.525Z,101194.59
2023-01-20T08:25:03.158Z,101194.84
2023-01-20T08:27:29.750Z,101198.00
2023-01-20T08:29:56.357Z,101212.31
2023-01-20T08:32:23.100Z,101214.06
2023-01-20T08:34:49.691Z,101219.47
2023-01-20T08:37:16.442Z,101227.75
2023-01-20T08:39:43.341Z,101234.34
2023-01-20T08:42:10.041Z,101235.56
2023-01-20T08:44:36.683Z,101238.69
2023-01-20T08:47:03.360Z,101237.41
2023-01-20T08:49:30.237Z,101241.78
2023-01-20T08:51:57.087Z,101238.00
2023-01-20T08:54:23.802Z,101239.09
2023-01-20T08:56:51.605Z,101248.63
2023-01-20T08:59:18.707Z,101244.50
2023-01-20T09:01:45.484Z,101245.88
2023-01-20T09:04:12.470Z,101249.97
2023-01-20T09:06:39.142Z,101248.19
2023-01-20T09:09:06.007Z,101251.94
2023-01-20T09:11:32.813Z,101246.69
2023-01-20T09:13:59.563Z,101240.22
2023-01-20T09:16:26.249Z,101252.09
2023-01-20T09:18:52.799Z,101252.59
2023-01-20T09:21:19.543Z,101262.66
2023-01-20T09:23:48.305Z,101263.38
2023-01-20T09:26:29.598Z,101260.16
2023-01-20T09:29:09.727Z,101257.94
2023-01-20T09:31:40.438Z,101265.44
2023-01-20T09:34:07.260Z,101261.34
2023-01-20T09:36:33.946Z,101268.22
2023-01-20T09:39:18.977Z,101271.69
2023-01-20T09:42:06.574Z,101269.72
2023-01-20T09:44:40.484Z,101283.22
2023-01-20T09:47:30.623Z,101286.63
2023-01-20T09:50:38.762Z,101287.72
2023-01-20T09:53:05.424Z,101280.47
2023-01-20T09:55:50.217Z,101288.00
2023-01-20T09:58:32.713Z,101304.47
2023-01-20T10:01:17.122Z,101302.56
2023-01-20T10:03:53.051Z,101298.69
2023-01-20T10:06:24.879Z,101303.59
2023-01-20T10:09:04.942Z,101297.81
2023-01-20T10:11:38.247Z,101289.72
2023-01-20T10:14:18.666Z,101293.09
2023-01-20T10:16:50.235Z,101300.09
2023-01-20T10:19:43.056Z,101299.31
2023-01-20T10:22:12.497Z,101300.13
2023-01-20T10:24:44.663Z,101309.78
2023-01-20T10:27:11.289Z,101309.78
2023-01-20T10:29:39.539Z,101310.41
2023-01-20T10:32:14.278Z,101322.03
2023-01-20T10:34:44.236Z,101315.53
2023-01-20T10:37:11.679Z,101314.03
2023-01-20T10:39:41.241Z,101325.81
2023-01-20T10:42:15.272Z,101328.59
2023-01-20T10:44:42.061Z,101327.88
2023-01-20T10:47:08.654Z,101321.75
2023-01-20T10:49:48.894Z,101318.28
2023-01-20T10:52:18.544Z,101320.22
2023-01-20T10:54:54.415Z,101322.53
2023-01-20T10:57:21.668Z,101318.78
2023-01-20T10:59:51.087Z,101319.59
2023-01-20T11:02:17.994Z,101325.56
2023-01-20T11:04:45.903Z,101320.94
2023-01-20T11:07:15.603Z,101324.38
2023-01-20T11:09:42.722Z,101330.47
2023-01-20T11:12:17.259Z,101324.16
2023-01-20T11:14:45.282Z,101322.25
2023-01-20T11:17:16.724Z,101326.09
2023-01-20T11:19:51.191Z,101319.06
2023-01-20T11:22:22.812Z,101320.88
2023-01-20T11:24:53.683Z,101319.66
2023-01-20T11:27:21.487Z,101319.97
2023-01-20T11:30:01.364Z,101319.91
2023-01-20T11:32:28.023Z,101313.47
2023-01-20T11:34:55.864Z,101321.31
2023-01-20T11:37:25.707Z,101320.03
2023-01-20T11:39:55.496Z,101313.97
2023-01-20T11:42:26.436Z,101307.34
2023-01-20T11:44:54.499Z,101312.59
2023-01-20T11:47:23.672Z,101315.53
2023-01-20T11:50:08.455Z,101314.69
2023-01-20T11:52:36.763Z,101308.22
2023-01-20T11:55:23.754Z,101309.09
2023-01-20T11:57:55.545Z,101301.00
2023-01-20T12:00:30.239Z,101309.53
2023-01-20T12:03:03.168Z,101311.28
2023-01-20T12:05:29.921Z,101306.75
2023-01-20T12:07:56.634Z,101299.72
2023-01-20T12:10:29.426Z,101300.84
2023-01-20T12:13:16.305Z,101305.53
2023-01-20T12:15:45.485Z,101297.16
2023-01-20T12:18:16.821Z,101287.75
2023-01-20T12:20:56.165Z,101296.88
2023-01-20T12:23:22.904Z,101288.31
2023-01-20T12:25:56.846Z,101287.78
2023-01-20T12:28:27.232Z,101288.25
2023-01-20T12:30:56.889Z,101293.31
2023-01-20T12:33:28.898Z,101284.97
2023-01-20T12:36:14.280Z,101281.56
2023-01-20T12:38:53.404Z,101277.88
2023-01-20T12:41:33.402Z,101280.38
2023-01-20T12:44:13.289Z,101282.72
2023-01-20T12:47:03.196Z,101276.69
2023-01-20T12:49:42.427Z,101273.78
2023-01-20T12:52:15.251Z,101274.41
2023-01-20T12:54:48.659Z,101278.66
2023-01-20T12:57:28.537Z,101271.22
2023-01-20T13:00:14.036Z,101278.41
2023-01-20T13:03:19.516Z,101270.69
2023-01-20T13:05:46.120Z,101273.63
2023-01-20T13:08:18.631Z,101265.31
2023-01-20T13:11:00.294Z,101269.66
2023-01-20T13:13:56.904Z,101269.94
2023-01-20T13:16:30.546Z,101262.09
2023-01-20T13:19:17.584Z,101266.63
2023-01-20T13:21:44.280Z,101260.88
2023-01-20T13:24:18.892Z,101265.31
2023-01-20T13:26:46.964Z,101264.66
2023-01-20T13:29:21.580Z,101266.78
2023-01-20T13:31:50.530Z,101269.00
2023-01-20T13:34:23.220Z,101276.81
2023-01-20T13:37:07.183Z,101263.09
2023-01-20T13:39:45.790Z,101270.00
2023-01-20T13:42:31.037Z,101271.00
2023-01-20T13:45:16.293Z,101268.72
2023-01-20T13:47:55.043Z,101269.56
2023-01-20T13:50:24.944Z,101268.91
2023-01-20T13:52:54.720Z,101266.69
2023-01-20T13:55:28.343Z,101270.75
2023-01-20T13:57:54.991Z,101263.94
2023-01-20T14:00:22.307Z,101270.22
2023-01-20T14:02:49.803Z,101265.00
2023-01-20T14:05:23.928Z,101266.06
2023-01-20T14:07:50.579Z,101272.44
2023-01-20T14:10:18.577Z,101266.19
2023-01-20T14:12:45.317Z,101256.94
2023-01-20T14:15:24.973Z,101268.06
2023-01-20T14:17:55.941Z,101257.25
2023-01-20T14:20:24.163Z,101264.59
2023-01-20T14:22:50.941Z,101260.91
2023-01-20T14:25:25.133Z,101268.72
2023-01-20T14:27:54.226Z,101267.72
2023-01-20T14:30:27.160Z,101265.25
2023-01-20T14:32:53.950Z,101275.84
2023-01-20T14:35:29.966Z,101273.34
2023-01-20T14:37:57.117Z,101268.84
2023-01-20T14:40:31.329Z,101274.63
2023-01-20T14:42:59.435Z,101273.44
2023-01-20T14:45:27.920Z,101268.09
2023-01-20T14:47:55.425Z,101276.97
2023-01-20T14:50:22.355Z,101267.72
2023-01-20T14:52:49.234Z,101269.22
2023-01-20T14:55:35.649Z,101269.50
2023-01-20T14:58:09.654Z,101271.84
2023-01-20T15:00:42.296Z,101268.53
2023-01-20T15:03:25.597Z,101271.34
2023-01-20T15:05:55.150Z,101274.38
2023-01-20T15:09:04.407Z,101277.38
2023-01-20T15:11:33.027Z,101280.31
2023-01-20T15:14:02.503Z,101286.31
2023-01-20T15:16:38.940Z,101286.16
2023-01-20T15:19:20.865Z,101287.59
2023-01-20T15:21:49.029Z,101287.41
2023-01-20T15:24:20.396Z,101281.72
2023-01-20T15:26:48.389Z,101288.69
2023-01-20T15:29:30.475Z,101298.19
2023-01-20T15:31:58.589Z,101293.88
2023-01-20T15:34:25.893Z,101292.31
2023-01-20T15:36:53.417Z,101293.97
2023-01-20T15:39:22.030Z,101291.22
2023-01-20T15:41:53.850Z,101294.91
2023-01-20T15:44:21.159Z,101299.13
2023-01-20T15:46:48.135Z,101299.56
2023-01-20T15:49:15.225Z,101298.28
2023-01-20T15:51:42.793Z,101296.91
2023-01-20T15:54:09.807Z,101311.44
2023-01-20T15:56:38.871Z,101308.09
2023-01-20T15:59:16.232Z,101309.22
2023-01-20T16:01:43.422Z,101318.22
2023-01-20T16:04:10.160Z,101319.88
2023-01-20T16:06:37.539Z,101330.91
2023-01-20T16:09:13.992Z,101334.13
2023-01-20T16:11:42.293Z,101333.13
2023-01-20T16:14:08.944Z,101335.56
2023-01-20T16:16:35.843Z,101337.66
2023-01-20T16:19:02.627Z,101341.25
2023-01-20T16:21:29.285Z,101360.94
2023-01-20T16:23:55.917Z,101357.25
2023-01-20T16:26:24.427Z,101366.78
2023-01-20T16:28:51.720Z,101370.09
2023-01-20T16:31:18.976Z,101376.97
2023-01-20T16:33:45.856Z,101386.88
2023-01-20T16:36:13.764Z,101385.72
2023-01-20T16:38:40.747Z,101388.28
2023-01-20T16:41:13.411Z,101396.19
2023-01-20T16:43:43.311Z,101403.72
2023-01-20T16:46:30.202Z,101392.56
2023-01-20T16:49:01.784Z,101404.09
2023-01-20T16:51:29.355Z,101407.09
2023-01-20T16:53:56.911Z,101412.94
2023-01-20T16:56:24.771Z,101414.78
2023-01-20T16:58:53.101Z,101413.44
2023-01-20T17:01:24.815Z,101416.63
2023-01-20T17:03:52.762Z,101417.44
2023-01-20T17:06:20.697Z,101417.94
2023-01-20T17:08:51.119Z,101427.53
2023-01-20T17:11:21.669Z,101436.50
2023-01-20T17:13:48.625Z,101438.13
2023-01-20T17:16:15.401Z,101441.25
2023-01-20T17:18:45.208Z,101440.59
2023-01-20T17:21:12.871Z,101445.56
2023-01-20T17:23:39.902Z,101446.84
2023-01-20T17:26:07.603Z,101438.03
2023-01-20T17:28:34.241Z,101437.28
2023-01-20T17:31:04.653Z,101438.97
2023-01-20T17:33:31.569Z,101445.94
2023-01-20T17:36:02.114Z,101443.25
2023-01-20T17:38:29.721Z,101443.06
2023-01-20T17:41:03.237Z,101452.06
2023-01-20T17:43:33.820Z,101457.81
2023-01-20T17:46:02.732Z,101460.56
2023-01-20T17:48:29.457Z,101465.22
2023-01-20T17:50:59.215Z,101473.75
2023-01-20T17:53:26.606Z,101470.78
2023-01-20T17:56:03.036Z,101465.25
2023-01-20T17:58:37.846Z,101470.94
2023-01-20T18:01:15.064Z,101470.41
2023-01-20T18:03:43.169Z,101464.97
2023-01-20T18:06:14.511Z,101466.09
2023-01-20T18:08:41.293Z,101474.91
2023-01-20T18:11:16.784Z,101477.03
2023-01-20T18:13:45.498Z,101481.63
2023-01-20T18:16:13.782Z,101484.75
2023-01-20T18:18:41.252Z,101485.13
2023-01-20T18:21:11.847Z,101485.69
2023-01-20T18:23:39.302Z,101489.47
2023-01-20T18:26:06.377Z,101490.28
2023-01-20T18:28:33.919Z,101497.13
2023-01-20T18:31:03.153Z,101497.75
2023-01-20T18:33:29.842Z,101498.25
2023-01-20T18:35:56.488Z,101504.72
2023-01-20T18:38:23.091Z,101507.44
2023-01-20T18:40:49.819Z,101509.56
2023-01-20T18:43:16.432Z,101511.53
2023-01-20T18:45:43.119Z,101511.50
2023-01-20T18:48:10.030Z,101512.97
2023-01-20T18:50:36.624Z,101518.00
2023-01-20T18:53:03.201Z,101511.25
2023-01-20T18:55:31.629Z,101518.91
2023-01-20T18:57:58.280Z,101515.94
2023-01-20T19:00:25.101Z,101523.53
2023-01-20T19:02:52.365Z,101515.44
2023-01-20T19:05:19.248Z,101519.00
2023-01-20T19:07:50.458Z,101528.06
2023-01-20T19:10:17.843Z,101525.00
2023-01-20T19:12:44.824Z,101530.03
2023-01-20T19:15:13.637Z,101522.97
2023-01-20T19:17:40.308Z,101525.63
2023-01-20T19:20:07.267Z,101532.31
2023-01-20T19:22:33.884Z,101537.22
2023-01-20T19:25:00.611Z,101530.13
2023-01-20T19:27:27.418Z,101534.66
2023-01-20T19:29:54.035Z,101536.16
2023-01-20T19:32:20.721Z,101541.56
2023-01-20T19:34:47.357Z,101542.75
2023-01-20T19:37:13.992Z,101539.47
2023-01-20T19:39:40.576Z,101535.53
2023-01-20T19:42:07.239Z,101539.28
2023-01-20T19:44:33.894Z,101535.63
2023-01-20T19:47:04.243Z,101539.28
2023-01-20T19:49:32.049Z,101534.88
2023-01-20T19:51:59.895Z,101539.63
2023-01-20T19:54:28.666Z,101546.13
2023-01-20T19:56:55.341Z,101538.69
2023-01-20T19:59:21.949Z,101545.06
2023-01-20T20:01:48.610Z,101530.81
2023-01-20T20:04:15.381Z,101538.59
2023-01-20T20:06:48.420Z,101536.34
2023-01-20T20:09:18.933Z,101534.47
2023-01-20T20:11:46.141Z,101535.69
2023-01-20T20:14:14.131Z,101526.28
2023-01-20T20:16:41.209Z,101530.75
2023-01-20T20:19:08.801Z,101525.31
2023-01-20T20:21:35.525Z,101534.03
2023-01-20T20:24:03.064Z,101527.84
2023-01-20T20:26:31.146Z,101535.81
2023-01-20T20:29:01.556Z,101545.59
2023-01-20T20:31:31.222Z,101536.00
2023-01-20T20:33:58.726Z,101533.75
2023-01-20T20:36:28.379Z,101528.97
2023-01-20T20:38:55.361Z,101529.19
2023-01-20T20:41:22.524Z,101530.41
2023-01-20T20:43:49.209Z,101528.81
2023-01-20T20:46:16.443Z,101533.06
2023-01-20T20:48:43.178Z,101535.44
2023-01-20T20:51:11.409Z,101531.88
2023-01-20T20:53:38.100Z,101533.31
2023-01-20T20:56:12.519Z,101535.81
2023-01-20T20:58:51.607Z,101530.34
2023-01-20T21:01:26.722Z,101532.25
2023-01-20T21:03:54.013Z,101533.06
2023-01-20T21:06:22.717Z,101523.56
2023-01-20T21:08:49.599Z,101520.72
2023-01-20T21:11:16.269Z,101516.94
2023-01-20T21:13:44.442Z,101517.31
2023-01-20T21:16:14.098Z,101511.91
2023-01-20T21:18:41.690Z,101515.16
2023-01-20T21:21:11.632Z,101508.88
2023-01-20T21:23:38.381Z,101515.97
2023-01-20T21:26:06.439Z,101529.91
2023-01-20T21:28:35.643Z,101541.78
2023-01-20T21:31:15.084Z,101534.56
2023-01-20T21:33:42.713Z,101544.47
2023-01-20T21:36:12.414Z,101541.53
2023-01-20T21:38:41.482Z,101536.66
2023-01-20T21:41:10.016Z,101540.13
2023-01-20T21:43:57.300Z,101533.44
2023-01-20T21:46:24.434Z,101540.56
2023-01-20T21:49:09.468Z,101545.56
2023-01-20T21:51:54.661Z,101547.22
2023-01-20T21:54:21.372Z,101541.34
2023-01-20T21:56:48.844Z,101537.19
2023-01-20T21:59:15.549Z,101541.34
2023-01-20T22:01:44.594Z,101524.81
2023-01-20T22:04:11.271Z,101528.00
2023-01-20T22:06:37.893Z,101531.34
2023-01-20T22:09:04.541Z,101536.50
2023-01-20T22:11:31.177Z,101530.94
2023-01-20T22:13:57.870Z,101528.25
2023-01-20T22:16:25.604Z,101534.13
2023-01-20T22:18:52.810Z,101527.16
2023-01-20T22:21:20.274Z,101537.06
2023-01-20T22:23:46.933Z,101541.81
2023-01-20T22:26:13.954Z,101550.31
2023-01-20T22:28:40.719Z,101561.03
2023-01-20T22:31:08.315Z,101563.28
2023-01-20T22:33:35.005Z,101560.06
2023-01-20T22:36:01.742Z,101563.56
2023-01-20T22:38:28.655Z,101564.81
2023-01-20T22:40:55.301Z,101576.22
2023-01-20T22:43:21.923Z,101569.97
2023-01-20T22:45:48.782Z,101568.44
2023-01-20T22:48:15.453Z,101556.75
2023-01-20T22:50:42.058Z,101556.72
2023-01-20T22:53:08.731Z,101562.28
2023-01-20T22:55:35.324Z,101569.25
2023-01-20T22:58:01.935Z,101567.72
2023-01-20T23:00:28.577Z,101564.41
2023-01-20T23:02:55.193Z,101563.00
2023-01-20T23:05:21.765Z,101568.50
2023-01-20T23:07:48.513Z,101568.34
2023-01-20T23:10:35.092Z,101569.50
2023-01-20T23:13:01.771Z,101562.56
2023-01-20T23:15:28.814Z,101567.56
2023-01-20T23:17:55.904Z,101556.97
2023-01-20T23:20:22.543Z,101554.19
2023-01-20T23:22:49.191Z,101559.31
2023-01-20T23:25:17.781Z,101558.91
2023-01-20T23:27:44.426Z,101561.09
2023-01-20T23:30:11.378Z,101562.63
2023-01-20T23:32:38.173Z,101566.69
2023-01-20T23:35:05.014Z,101574.22
2023-01-20T23:37:31.637Z,101561.97
2023-01-20T23:39:58.214Z,101567.22
2023-01-20T23:42:24.860Z,101554.50
2023-01-20T23:44:51.706Z,101547.13
2023-01-20T23:47:18.412Z,101554.63
2023-01-20T23:49:45.065Z,101552.34
2023-01-20T23:52:11.688Z,101553.66
2023-01-20T23:54:38.272Z,101553.19
2023-01-20T23:57:04.944Z,101559.47
2023-01-20T23:59:31.619Z,101555.84
